Weather observations for the past three days for
Las Vegas, North Las Vegas Airport
Imperial (Metric)
Date Time (pdt) Wind (mph) Vis. (mi.) Weather Sky Cond. Temperature (ºF) Relative Humidity Wind Chill (°F) Heat Index (°F) Pressure Precipitation (in)
Air Dwpt 6 hour altimeter (in) sea level (mb) 1 hr 3 hr 6 hr
Max. Min.
10 11:53 E 9 G 22 10.00 Fair CLR 93 14 5% 89 29.98 1013.8
10 10:53 E 12 G 22 10.00 Fair CLR 91 15.1 91.9 73 6% 87 29.99 1014.2
10 09:53 Calm 10.00 Fair CLR 88 17.1 7% 84 29.98 1014.1
10 08:53 Calm 10.00 Fair CLR 84 19 9% 81 29.98 1014.0
10 07:53 NW 5 10.00 Fair CLR 82 19.9 10% 80 29.98 1013.8
10 06:53 NW 6 10.00 Fair CLR 77 23 13% 76 29.95 1013.2
10 05:53 W 5 10.00 Fair CLR 73 26.1 17% 29.92 1012.3
10 04:53 W 6 10.00 Fair CLR 77 24.1 87.1 75 14% 76 29.91 1011.6
10 03:53 SW 5 10.00 Fair CLR 78.1 23 13% 77 29.89 1011.0
10 02:53 Calm 10.00 Fair CLR 81 21 11% 79 29.87 1010.3
10 01:53 NE 5 10.00 Fair CLR 82 21 10% 80 29.85 1009.5
10 00:53 NW 6 10.00 Fair CLR 82.9 21.9 10% 80 29.84 1009.2
09 23:53 NW 7 10.00 Fair CLR 86 23 10% 83 29.83 1008.9
09 22:53 N 9 10.00 Fair CLR 87.1 25 98.1 86 10% 84 29.81 1008.1
09 21:53 W 7 10.00 Fair CLR 89.1 25 10% 85 29.8 1007.8
09 20:53 W 10 10.00 Fair CLR 91.9 23 8% 88 29.78 1007.0
09 19:53 SW 10 10.00 Fair CLR 95 24.1 8% 90 29.76 1006.4
09 18:53 W 10 10.00 Fair CLR 97 21.9 7% 92 29.75 1006.0
09 17:53 SW 8 10.00 Fair CLR 98.1 24.1 7% 93 29.75 1006.2
09 16:53 Vrbl 3 G 16 10.00 Fair CLR 97 25 99 91 7% 92 29.76 1006.5
09 15:53 W 12 G 21 10.00 Fair CLR 98.1 25 7% 93 29.77 1007.1
09 14:53 Calm 10.00 Fair CLR 97 25 7% 92 29.81 1008.2
09 13:53 SW 6 10.00 Fair CLR 95 25 8% 90 29.84 1009.2
09 12:53 Calm 10.00 Fair CLR 93.9 25 8% 89 29.85 1009.6
09 11:53 Vrbl 3 10.00 Fair CLR 91.9 25 9% 88 29.88 1010.5
09 10:53 NE 12 10.00 Fair CLR 91.9 24.1 91.9 72 8% 88 29.88 1010.7
09 09:53 N 7 10.00 Fair CLR 89.1 24.1 9% 85 29.88 1010.5
09 08:53 N 12 10.00 Fair CLR 87.1 25 10% 84 29.88 1010.6
09 07:53 N 12 10.00 Fair CLR 82 24.1 12% 80 29.88 1010.6
09 06:53 N 15 10.00 Fair CLR 78.1 19.9 11% 77 29.87 1010.2
09 05:53 N 6 10.00 Fair CLR 73.9 24.1 15% 29.85 1009.8
09 04:53 NW 6 10.00 Fair CLR 73 28.9 86 72 19% 29.83 1009.1
09 03:53 W 3 10.00 Fair CLR 75.9 27 16% 76 29.82 1008.6
09 02:53 W 5 10.00 Fair CLR 77 26.1 15% 76 29.82 1008.6
09 01:53 N 6 10.00 Fair CLR 79 27 15% 78 29.81 1008.3
09 00:53 W 6 10.00 Fair CLR 82.9 26.1 12% 80 29.81 1008.1
08 23:53 W 6 10.00 Fair CLR 84 27 12% 81 29.81 1008.1
08 22:53 N 7 10.00 Fair CLR 84 27 99 84 12% 81 29.8 1008.1
08 21:53 W 12 10.00 Fair CLR 90 28 11% 86 29.8 1007.7
08 20:53 W 12 10.00 Fair CLR 91 27 10% 87 29.79 1007.4
08 19:53 SW 9 10.00 Fair CLR 93 21 7% 88 29.77 1007.1
08 18:53 N 8 10.00 Fair CLR 96.1 19.9 6% 91 29.76 1006.6
08 17:53 NW 10 10.00 Fair CLR 98.1 19.9 6% 93 29.76 1006.8
08 16:53 Vrbl 7 G 20 10.00 Fair CLR 98.1 21 99 90 6% 93 29.77 1007.0
08 15:53 S 10 G 18 10.00 Fair CLR 97 24.1 7% 92 29.78 1007.6
08 14:53 Vrbl 5 10.00 Fair CLR 97 25 7% 92 29.81 1008.6
08 13:53 Vrbl 5 G 17 10.00 Fair CLR 96.1 24.1 7% 91 29.84 1009.3
08 12:53 W 7 10.00 Fair CLR 95 21.9 7% 90 29.86 1010.1
08 11:53 Calm 10.00 Fair CLR 91.9 26.1 9% 88 29.88 1010.9
08 10:53 Calm 10.00 Fair CLR 90 26.1 90 66.9 10% 86 29.9 1011.5
08 09:53 Vrbl 3 10.00 Fair CLR 86 27 12% 83 29.91 1011.8
08 08:53 N 5 10.00 Fair CLR 84.9 28 13% 82 29.9 1011.6
08 07:53 S 3 10.00 Fair CLR 78.1 28.9 16% 77 29.91 1011.8
08 06:53 Calm 10.00 Fair CLR 73 28 19% 29.89 1011.5
08 05:53 Calm 10.00 Fair CLR 70 25 18% 29.87 1010.7
08 04:53 NW 7 10.00 Fair CLR 70 27 80.1 70 20% 29.86 1010.4
08 03:53 Calm 10.00 Fair CLR 70 30 23% 29.86 1010.6
08 02:53 NW 6 10.00 Fair CLR 71.1 28.9 21% 29.85 1010.3
08 01:53 NW 5 10.00 Fair CLR 73 27 18% 29.85 1010.2
08 00:53 NW 5 10.00 Fair CLR 75 28.9 18% 76 29.85 1010.3
07 23:53 NW 3 10.00 Fair CLR 77 28 16% 77 29.85 1010.2
07 22:53 W 6 10.00 Fair CLR 79 28 91.9 78.1 15% 78 29.85 1010.2
07 21:53 W 7 10.00 Fair CLR 84 25 11% 81 29.85 1010.0
07 20:53 S 7 10.00 Fair CLR 86 27 12% 83 29.84 1009.7
07 19:53 S 5 10.00 Fair CLR 89.1 27 11% 85 29.82 1009.1
07 18:53 S 9 10.00 Fair CLR 91 27 10% 87 29.81 1008.9
07 17:53 S 12 10.00 Fair CLR 91.9 26.1 9% 88 29.82 1009.2
07 16:53 Calm 10.00 Fair CLR 91 25 91 81 9% 87 29.83 1009.7
07 15:53 S 5 10.00 Fair CLR 90 24.1 9% 86 29.85 1010.3
07 14:53 Vrbl 3 10.00 Fair CLR 89.1 23 9% 85 29.89 1011.5
07 13:53 SE 3 10.00 Fair CLR 87.1 21.9 9% 84 29.92 1012.8
07 12:53 NE 6 10.00 Fair CLR 86 21 9% 83 29.95 1013.8
Date Time (pdt) Wind (mph) Vis. (mi.) Weather Sky Cond. Air Dwpt Max. Min. Relative Humidity Wind Chill (°F) Heat Index (°F) altimeter (in) sea level (mb) 1 hr 3 hr 6 hr
6 hour
Temperature (ºF) Pressure Precipitation (in)